sensor_id;sensor_type;location;lat;lon;timestamp;temperature;humidity
24744;DHT22;12844;52.110;5.548;2023-01-15T00:01:33;19.30;53.20
24744;DHT22;12844;52.110;5.548;2023-01-15T00:04:00;19.30;53.10
24744;DHT22;12844;52.110;5.548;2023-01-15T00:06:28;19.30;53.00
24744;DHT22;12844;52.110;5.548;2023-01-15T00:08:54;19.20;53.00
24744;DHT22;12844;52.110;5.548;2023-01-15T00:11:20;19.20;53.00
24744;DHT22;12844;52.110;5.548;2023-01-15T00:13:47;19.20;53.00
24744;DHT22;12844;52.110;5.548;2023-01-15T00:16:15;19.20;53.00
24744;DHT22;12844;52.110;5.548;2023-01-15T00:18:42;19.10;52.90
24744;DHT22;12844;52.110;5.548;2023-01-15T00:21:10;19.10;52.90
24744;DHT22;12844;52.110;5.548;2023-01-15T00:23:36;19.10;52.70
24744;DHT22;12844;52.110;5.548;2023-01-15T00:26:22;19.10;52.80
24744;DHT22;12844;52.110;5.548;2023-01-15T00:29:10;19.00;52.60
24744;DHT22;12844;52.110;5.548;2023-01-15T00:31:35;18.90;52.60
24744;DHT22;12844;52.110;5.548;2023-01-15T00:34:01;18.90;52.60
24744;DHT22;12844;52.110;5.548;2023-01-15T00:36:26;18.90;52.50
24744;DHT22;12844;52.110;5.548;2023-01-15T00:38:52;18.90;52.60
24744;DHT22;12844;52.110;5.548;2023-01-15T00:41:18;18.90;52.50
24744;DHT22;12844;52.110;5.548;2023-01-15T00:43:43;18.90;52.50
24744;DHT22;12844;52.110;5.548;2023-01-15T00:46:09;18.80;52.60
24744;DHT22;12844;52.110;5.548;2023-01-15T00:58:48;18.70;52.50
24744;DHT22;12844;52.110;5.548;2023-01-15T01:01:14;18.70;52.50
24744;DHT22;12844;52.110;5.548;2023-01-15T01:03:40;18.70;52.50
24744;DHT22;12844;52.110;5.548;2023-01-15T01:06:05;18.70;52.50
24744;DHT22;12844;52.110;5.548;2023-01-15T01:08:31;18.70;52.50
24744;DHT22;12844;52.110;5.548;2023-01-15T01:11:04;18.60;52.50
24744;DHT22;12844;52.110;5.548;2023-01-15T01:13:31;18.60;52.50
24744;DHT22;12844;52.110;5.548;2023-01-15T01:15:56;18.60;52.50
24744;DHT22;12844;52.110;5.548;2023-01-15T01:18:22;18.60;52.50
24744;DHT22;12844;52.110;5.548;2023-01-15T01:20:48;18.60;52.50
24744;DHT22;12844;52.110;5.548;2023-01-15T01:23:13;18.50;52.40
24744;DHT22;12844;52.110;5.548;2023-01-15T01:25:39;18.50;52.40
24744;DHT22;12844;52.110;5.548;2023-01-15T01:28:04;18.50;52.40
24744;DHT22;12844;52.110;5.548;2023-01-15T01:30:30;18.50;52.40
24744;DHT22;12844;52.110;5.548;2023-01-15T01:32:55;18.50;52.50
24744;DHT22;12844;52.110;5.548;2023-01-15T01:35:21;18.50;52.40
24744;DHT22;12844;52.110;5.548;2023-01-15T01:37:50;18.40;52.40
24744;DHT22;12844;52.110;5.548;2023-01-15T01:40:17;18.40;52.40
24744;DHT22;12844;52.110;5.548;2023-01-15T01:42:42;18.40;52.40
24744;DHT22;12844;52.110;5.548;2023-01-15T01:45:21;18.40;52.40
24744;DHT22;12844;52.110;5.548;2023-01-15T01:47:50;18.40;52.40
24744;DHT22;12844;52.110;5.548;2023-01-15T01:50:16;18.40;52.40
24744;DHT22;12844;52.110;5.548;2023-01-15T01:52:58;18.40;52.40
24744;DHT22;12844;52.110;5.548;2023-01-15T01:55:27;18.40;52.40
24744;DHT22;12844;52.110;5.548;2023-01-15T01:57:55;18.40;52.40
24744;DHT22;12844;52.110;5.548;2023-01-15T02:00:22;18.30;52.40
24744;DHT22;12844;52.110;5.548;2023-01-15T02:02:49;18.30;52.40
24744;DHT22;12844;52.110;5.548;2023-01-15T02:05:31;18.30;52.40
24744;DHT22;12844;52.110;5.548;2023-01-15T02:07:57;18.30;52.40
24744;DHT22;12844;52.110;5.548;2023-01-15T02:10:23;18.30;52.40
24744;DHT22;12844;52.110;5.548;2023-01-15T02:13:13;18.30;52.30
24744;DHT22;12844;52.110;5.548;2023-01-15T02:18:45;18.30;52.30
24744;DHT22;12844;52.110;5.548;2023-01-15T02:26:56;18.20;52.20
24744;DHT22;12844;52.110;5.548;2023-01-15T02:32:08;18.20;52.20
24744;DHT22;12844;52.110;5.548;2023-01-15T02:34:36;18.20;52.20
24744;DHT22;12844;52.110;5.548;2023-01-15T02:37:13;18.20;52.10
24744;DHT22;12844;52.110;5.548;2023-01-15T02:39:41;18.30;51.90
24744;DHT22;12844;52.110;5.548;2023-01-15T02:42:09;18.30;52.00
24744;DHT22;12844;52.110;5.548;2023-01-15T02:44:40;18.30;51.90
24744;DHT22;12844;52.110;5.548;2023-01-15T02:47:07;18.30;51.70
24744;DHT22;12844;52.110;5.548;2023-01-15T02:49:34;18.40;51.70
24744;DHT22;12844;52.110;5.548;2023-01-15T02:52:07;18.40;51.60
24744;DHT22;12844;52.110;5.548;2023-01-15T02:54:42;18.40;51.50
24744;DHT22;12844;52.110;5.548;2023-01-15T02:57:09;18.40;52.10
24744;DHT22;12844;52.110;5.548;2023-01-15T02:59:39;18.40;51.40
24744;DHT22;12844;52.110;5.548;2023-01-15T03:02:19;18.40;51.30
24744;DHT22;12844;52.110;5.548;2023-01-15T03:04:54;18.50;51.30
24744;DHT22;12844;52.110;5.548;2023-01-15T03:07:25;18.40;51.40
24744;DHT22;12844;52.110;5.548;2023-01-15T03:09:53;18.40;51.50
24744;DHT22;12844;52.110;5.548;2023-01-15T03:12:25;18.40;51.40
24744;DHT22;12844;52.110;5.548;2023-01-15T03:15:04;18.30;51.70
24744;DHT22;12844;52.110;5.548;2023-01-15T03:17:49;18.30;51.50
24744;DHT22;12844;52.110;5.548;2023-01-15T03:20:26;18.40;51.40
24744;DHT22;12844;52.110;5.548;2023-01-15T03:22:59;18.40;51.90
24744;DHT22;12844;52.110;5.548;2023-01-15T03:25:36;18.30;51.30
24744;DHT22;12844;52.110;5.548;2023-01-15T03:28:05;18.30;51.20
24744;DHT22;12844;52.110;5.548;2023-01-15T03:30:32;18.30;51.20
24744;DHT22;12844;52.110;5.548;2023-01-15T03:32:58;18.30;51.20
24744;DHT22;12844;52.110;5.548;2023-01-15T03:38:19;18.30;51.10
24744;DHT22;12844;52.110;5.548;2023-01-15T03:43:19;18.20;51.20
24744;DHT22;12844;52.110;5.548;2023-01-15T03:49:30;18.20;51.20
24744;DHT22;12844;52.110;5.548;2023-01-15T03:52:02;18.10;51.10
24744;DHT22;12844;52.110;5.548;2023-01-15T03:57:41;18.10;51.00
24744;DHT22;12844;52.110;5.548;2023-01-15T04:00:21;18.10;51.10
24744;DHT22;12844;52.110;5.548;2023-01-15T04:02:49;18.10;51.00
24744;DHT22;12844;52.110;5.548;2023-01-15T04:05:16;18.10;51.00
24744;DHT22;12844;52.110;5.548;2023-01-15T04:07:42;18.10;51.10
24744;DHT22;12844;52.110;5.548;2023-01-15T04:10:10;18.10;51.10
24744;DHT22;12844;52.110;5.548;2023-01-15T04:12:36;18.00;51.00
24744;DHT22;12844;52.110;5.548;2023-01-15T04:15:02;18.10;51.10
24744;DHT22;12844;52.110;5.548;2023-01-15T04:17:27;18.00;51.00
24744;DHT22;12844;52.110;5.548;2023-01-15T04:19:53;18.00;51.10
24744;DHT22;12844;52.110;5.548;2023-01-15T04:22:19;18.10;51.00
24744;DHT22;12844;52.110;5.548;2023-01-15T04:24:44;18.00;51.00
24744;DHT22;12844;52.110;5.548;2023-01-15T04:27:10;18.00;51.00
24744;DHT22;12844;52.110;5.548;2023-01-15T04:29:35;18.00;50.90
24744;DHT22;12844;52.110;5.548;2023-01-15T04:32:01;18.00;50.90
24744;DHT22;12844;52.110;5.548;2023-01-15T04:34:27;18.00;51.00
24744;DHT22;12844;52.110;5.548;2023-01-15T04:36:53;18.00;50.90
24744;DHT22;12844;52.110;5.548;2023-01-15T04:39:19;18.00;51.00
24744;DHT22;12844;52.110;5.548;2023-01-15T04:41:45;18.00;50.90
24744;DHT22;12844;52.110;5.548;2023-01-15T04:44:29;18.00;50.90
24744;DHT22;12844;52.110;5.548;2023-01-15T04:46:55;17.90;50.90
24744;DHT22;12844;52.110;5.548;2023-01-15T04:49:22;17.90;51.00
24744;DHT22;12844;52.110;5.548;2023-01-15T04:51:47;17.90;50.90
24744;DHT22;12844;52.110;5.548;2023-01-15T04:54:14;17.90;51.00
24744;DHT22;12844;52.110;5.548;2023-01-15T04:56:45;17.90;50.90
24744;DHT22;12844;52.110;5.548;2023-01-15T04:59:11;17.90;50.90
24744;DHT22;12844;52.110;5.548;2023-01-15T05:01:37;17.90;50.80
24744;DHT22;12844;52.110;5.548;2023-01-15T05:04:03;17.80;50.90
24744;DHT22;12844;52.110;5.548;2023-01-15T05:06:29;17.90;50.90
24744;DHT22;12844;52.110;5.548;2023-01-15T05:08:59;17.90;50.90
24744;DHT22;12844;52.110;5.548;2023-01-15T05:11:25;17.80;50.90
24744;DHT22;12844;52.110;5.548;2023-01-15T05:13:51;17.80;50.90
24744;DHT22;12844;52.110;5.548;2023-01-15T05:16:21;17.80;51.10
24744;DHT22;12844;52.110;5.548;2023-01-15T05:18:50;17.80;51.00
24744;DHT22;12844;52.110;5.548;2023-01-15T05:21:26;17.80;50.90
24744;DHT22;12844;52.110;5.548;2023-01-15T05:23:54;17.80;50.80
24744;DHT22;12844;52.110;5.548;2023-01-15T05:26:22;17.80;50.90
24744;DHT22;12844;52.110;5.548;2023-01-15T05:28:48;17.80;50.90
24744;DHT22;12844;52.110;5.548;2023-01-15T05:31:16;17.80;50.80
24744;DHT22;12844;52.110;5.548;2023-01-15T05:33:43;17.80;50.80
24744;DHT22;12844;52.110;5.548;2023-01-15T05:36:15;17.80;50.90
24744;DHT22;12844;52.110;5.548;2023-01-15T05:38:41;17.80;50.90
24744;DHT22;12844;52.110;5.548;2023-01-15T05:41:12;17.80;50.80
24744;DHT22;12844;52.110;5.548;2023-01-15T05:44:03;17.70;50.80
24744;DHT22;12844;52.110;5.548;2023-01-15T05:46:29;17.70;50.80
24744;DHT22;12844;52.110;5.548;2023-01-15T05:48:59;17.70;50.80
24744;DHT22;12844;52.110;5.548;2023-01-15T05:51:25;17.70;50.80
24744;DHT22;12844;52.110;5.548;2023-01-15T05:53:50;17.70;51.50
24744;DHT22;12844;52.110;5.548;2023-01-15T05:56:16;17.70;50.80
24744;DHT22;12844;52.110;5.548;2023-01-15T05:58:41;17.70;50.80
24744;DHT22;12844;52.110;5.548;2023-01-15T06:01:08;17.70;50.80
24744;DHT22;12844;52.110;5.548;2023-01-15T06:03:34;17.70;50.80
24744;DHT22;12844;52.110;5.548;2023-01-15T06:06:00;17.70;50.80
24744;DHT22;12844;52.110;5.548;2023-01-15T06:08:26;17.70;50.70
24744;DHT22;12844;52.110;5.548;2023-01-15T06:10:51;17.70;50.70
24744;DHT22;12844;52.110;5.548;2023-01-15T06:13:17;17.70;50.60
24744;DHT22;12844;52.110;5.548;2023-01-15T06:15:43;17.70;50.80
24744;DHT22;12844;52.110;5.548;2023-01-15T06:18:09;17.70;50.80
24744;DHT22;12844;52.110;5.548;2023-01-15T06:20:39;17.70;50.70
24744;DHT22;12844;52.110;5.548;2023-01-15T06:23:06;17.70;50.70
24744;DHT22;12844;52.110;5.548;2023-01-15T06:25:32;17.70;50.60
24744;DHT22;12844;52.110;5.548;2023-01-15T06:28:04;17.70;50.40
24744;DHT22;12844;52.110;5.548;2023-01-15T06:30:30;17.60;50.40
24744;DHT22;12844;52.110;5.548;2023-01-15T06:32:55;17.60;50.50
24744;DHT22;12844;52.110;5.548;2023-01-15T06:35:21;17.60;50.70
24744;DHT22;12844;52.110;5.548;2023-01-15T06:37:48;17.60;50.70
24744;DHT22;12844;52.110;5.548;2023-01-15T06:40:14;17.60;50.70
24744;DHT22;12844;52.110;5.548;2023-01-15T06:42:40;17.50;50.80
24744;DHT22;12844;52.110;5.548;2023-01-15T06:45:24;17.50;50.70
24744;DHT22;12844;52.110;5.548;2023-01-15T06:48:08;17.50;50.70
24744;DHT22;12844;52.110;5.548;2023-01-15T06:50:34;17.50;50.70
24744;DHT22;12844;52.110;5.548;2023-01-15T06:52:59;17.60;50.60
24744;DHT22;12844;52.110;5.548;2023-01-15T06:55:25;17.60;50.60
24744;DHT22;12844;52.110;5.548;2023-01-15T06:57:50;17.60;50.60
24744;DHT22;12844;52.110;5.548;2023-01-15T07:00:16;17.50;50.60
24744;DHT22;12844;52.110;5.548;2023-01-15T07:02:42;17.60;50.60
24744;DHT22;12844;52.110;5.548;2023-01-15T07:05:08;17.60;50.50
24744;DHT22;12844;52.110;5.548;2023-01-15T07:07:33;17.50;50.40
24744;DHT22;12844;52.110;5.548;2023-01-15T07:09:59;17.50;50.50
24744;DHT22;12844;52.110;5.548;2023-01-15T07:12:25;17.50;50.50
24744;DHT22;12844;52.110;5.548;2023-01-15T07:14:51;17.50;50.50
24744;DHT22;12844;52.110;5.548;2023-01-15T07:17:16;17.50;50.40
24744;DHT22;12844;52.110;5.548;2023-01-15T08:29:37;17.10;51.20
24744;DHT22;12844;52.110;5.548;2023-01-15T08:32:02;17.00;51.90
24744;DHT22;12844;52.110;5.548;2023-01-15T08:34:28;17.00;52.10
24744;DHT22;12844;52.110;5.548;2023-01-15T08:36:53;17.10;52.30
24744;DHT22;12844;52.110;5.548;2023-01-15T08:39:24;17.20;52.40
24744;DHT22;12844;52.110;5.548;2023-01-15T08:41:50;17.40;52.30
24744;DHT22;12844;52.110;5.548;2023-01-15T08:44:16;17.60;52.10
24744;DHT22;12844;52.110;5.548;2023-01-15T08:46:41;17.90;51.90
24744;DHT22;12844;52.110;5.548;2023-01-15T08:49:09;18.00;51.70
24744;DHT22;12844;52.110;5.548;2023-01-15T08:51:35;18.20;51.50
24744;DHT22;12844;52.110;5.548;2023-01-15T08:54:00;18.40;51.30
24744;DHT22;12844;52.110;5.548;2023-01-15T08:56:26;18.60;51.00
24744;DHT22;12844;52.110;5.548;2023-01-15T08:58:51;18.70;50.80
24744;DHT22;12844;52.110;5.548;2023-01-15T09:01:17;18.80;50.50
24744;DHT22;12844;52.110;5.548;2023-01-15T09:03:42;18.90;50.40
24744;DHT22;12844;52.110;5.548;2023-01-15T09:06:09;18.90;50.20
24744;DHT22;12844;52.110;5.548;2023-01-15T09:08:35;18.80;50.30
24744;DHT22;12844;52.110;5.548;2023-01-15T09:11:03;18.70;50.60
24744;DHT22;12844;52.110;5.548;2023-01-15T09:13:30;18.80;50.60
24744;DHT22;12844;52.110;5.548;2023-01-15T09:16:00;19.00;50.40
24744;DHT22;12844;52.110;5.548;2023-01-15T09:18:26;18.90;50.40
24744;DHT22;12844;52.110;5.548;2023-01-15T09:20:51;19.00;50.60
24744;DHT22;12844;52.110;5.548;2023-01-15T09:23:17;19.00;50.50
24744;DHT22;12844;52.110;5.548;2023-01-15T09:25:53;19.10;50.30
24744;DHT22;12844;52.110;5.548;2023-01-15T09:28:19;19.20;50.90
24744;DHT22;12844;52.110;5.548;2023-01-15T09:30:45;19.20;50.20
24744;DHT22;12844;52.110;5.548;2023-01-15T09:33:10;19.20;50.10
24744;DHT22;12844;52.110;5.548;2023-01-15T09:35:36;19.20;50.00
24744;DHT22;12844;52.110;5.548;2023-01-15T09:38:01;19.20;49.90
24744;DHT22;12844;52.110;5.548;2023-01-15T09:43:05;19.30;49.80
24744;DHT22;12844;52.110;5.548;2023-01-15T09:45:44;19.30;50.30
24744;DHT22;12844;52.110;5.548;2023-01-15T09:48:29;19.50;49.70
24744;DHT22;12844;52.110;5.548;2023-01-15T09:56:15;19.50;49.50
24744;DHT22;12844;52.110;5.548;2023-01-15T09:58:43;19.50;49.50
24744;DHT22;12844;52.110;5.548;2023-01-15T10:01:18;19.50;49.40
24744;DHT22;12844;52.110;5.548;2023-01-15T10:03:52;19.60;49.40
24744;DHT22;12844;52.110;5.548;2023-01-15T10:06:27;19.60;49.30
24744;DHT22;12844;52.110;5.548;2023-01-15T10:09:11;19.70;49.20
24744;DHT22;12844;52.110;5.548;2023-01-15T10:11:51;19.60;49.00
24744;DHT22;12844;52.110;5.548;2023-01-15T10:15:09;19.70;49.10
24744;DHT22;12844;52.110;5.548;2023-01-15T10:17:40;19.80;49.20
24744;DHT22;12844;52.110;5.548;2023-01-15T10:20:17;19.80;49.00
24744;DHT22;12844;52.110;5.548;2023-01-15T10:23:06;19.90;48.90
24744;DHT22;12844;52.110;5.548;2023-01-15T10:25:41;20.00;48.80
24744;DHT22;12844;52.110;5.548;2023-01-15T10:28:59;19.90;48.80
24744;DHT22;12844;52.110;5.548;2023-01-15T10:31:19;19.90;48.90
24744;DHT22;12844;52.110;5.548;2023-01-15T10:36:45;19.90;49.10
24744;DHT22;12844;52.110;5.548;2023-01-15T10:39:33;20.00;49.10
24744;DHT22;12844;52.110;5.548;2023-01-15T10:45:19;20.20;48.90
24744;DHT22;12844;52.110;5.548;2023-01-15T10:47:52;20.10;49.20
24744;DHT22;12844;52.110;5.548;2023-01-15T10:50:23;20.20;49.10
24744;DHT22;12844;52.110;5.548;2023-01-15T10:55:50;20.20;49.40
24744;DHT22;12844;52.110;5.548;2023-01-15T10:58:33;20.30;49.70
24744;DHT22;12844;52.110;5.548;2023-01-15T11:01:04;20.40;48.80
24744;DHT22;12844;52.110;5.548;2023-01-15T11:03:40;20.30;49.10
24744;DHT22;12844;52.110;5.548;2023-01-15T11:06:15;20.50;48.40
24744;DHT22;12844;52.110;5.548;2023-01-15T11:08:53;20.50;48.90
24744;DHT22;12844;52.110;5.548;2023-01-15T11:11:28;20.40;48.70
24744;DHT22;12844;52.110;5.548;2023-01-15T11:14:14;20.30;48.80
24744;DHT22;12844;52.110;5.548;2023-01-15T11:17:13;20.30;48.50
24744;DHT22;12844;52.110;5.548;2023-01-15T11:19:57;20.30;48.70
24744;DHT22;12844;52.110;5.548;2023-01-15T11:22:23;20.40;48.00
24744;DHT22;12844;52.110;5.548;2023-01-15T11:24:53;20.40;47.80
24744;DHT22;12844;52.110;5.548;2023-01-15T11:27:31;20.30;48.20
24744;DHT22;12844;52.110;5.548;2023-01-15T11:29:59;20.30;48.80
24744;DHT22;12844;52.110;5.548;2023-01-15T11:32:36;20.20;48.50
24744;DHT22;12844;52.110;5.548;2023-01-15T11:35:15;20.20;48.20
24744;DHT22;12844;52.110;5.548;2023-01-15T11:37:41;20.10;48.40
24744;DHT22;12844;52.110;5.548;2023-01-15T11:40:19;20.00;48.30
24744;DHT22;12844;52.110;5.548;2023-01-15T11:42:46;20.00;48.30
24744;DHT22;12844;52.110;5.548;2023-01-15T11:45:30;19.90;48.10
24744;DHT22;12844;52.110;5.548;2023-01-15T11:48:16;19.90;48.10
24744;DHT22;12844;52.110;5.548;2023-01-15T11:51:06;19.90;48.00
24744;DHT22;12844;52.110;5.548;2023-01-15T11:53:38;19.80;49.00
24744;DHT22;12844;52.110;5.548;2023-01-15T11:56:08;19.60;49.80
24744;DHT22;12844;52.110;5.548;2023-01-15T11:58:53;19.60;50.00
24744;DHT22;12844;52.110;5.548;2023-01-15T12:01:29;19.80;49.70
24744;DHT22;12844;52.110;5.548;2023-01-15T12:03:58;19.90;49.30
24744;DHT22;12844;52.110;5.548;2023-01-15T12:06:25;19.90;49.60
24744;DHT22;12844;52.110;5.548;2023-01-15T12:09:09;20.00;49.60
24744;DHT22;12844;52.110;5.548;2023-01-15T12:28:12;20.30;48.80
24744;DHT22;12844;52.110;5.548;2023-01-15T12:31:02;20.30;48.90
24744;DHT22;12844;52.110;5.548;2023-01-15T12:33:36;20.40;48.70
24744;DHT22;12844;52.110;5.548;2023-01-15T12:36:13;20.30;48.80
24744;DHT22;12844;52.110;5.548;2023-01-15T12:38:50;20.30;48.80
24744;DHT22;12844;52.110;5.548;2023-01-15T12:41:35;20.30;48.80
24744;DHT22;12844;52.110;5.548;2023-01-15T12:47:15;20.20;48.90
24744;DHT22;12844;52.110;5.548;2023-01-15T12:50:21;20.10;48.90
24744;DHT22;12844;52.110;5.548;2023-01-15T12:55:28;20.10;48.70
24744;DHT22;12844;52.110;5.548;2023-01-15T12:57:58;20.10;48.70
24744;DHT22;12844;52.110;5.548;2023-01-15T13:00:26;19.90;49.20
24744;DHT22;12844;52.110;5.548;2023-01-15T13:03:14;19.90;49.50
24744;DHT22;12844;52.110;5.548;2023-01-15T13:05:46;19.80;49.70
24744;DHT22;12844;52.110;5.548;2023-01-15T13:08:32;19.90;49.80
24744;DHT22;12844;52.110;5.548;2023-01-15T13:10:59;19.90;49.80
24744;DHT22;12844;52.110;5.548;2023-01-15T13:13:32;20.10;49.60
24744;DHT22;12844;52.110;5.548;2023-01-15T13:16:22;20.40;49.00
24744;DHT22;12844;52.110;5.548;2023-01-15T13:21:42;20.50;49.10
24744;DHT22;12844;52.110;5.548;2023-01-15T13:27:19;20.50;49.00
24744;DHT22;12844;52.110;5.548;2023-01-15T13:32:57;20.50;49.00
24744;DHT22;12844;52.110;5.548;2023-01-15T13:35:30;20.50;48.90
24744;DHT22;12844;52.110;5.548;2023-01-15T13:37:57;20.50;48.80
24744;DHT22;12844;52.110;5.548;2023-01-15T13:42:50;20.30;49.00
24744;DHT22;12844;52.110;5.548;2023-01-15T13:47:57;20.30;50.40
24744;DHT22;12844;52.110;5.548;2023-01-15T13:50:32;20.30;49.90
24744;DHT22;12844;52.110;5.548;2023-01-15T13:55:39;20.50;49.90
24744;DHT22;12844;52.110;5.548;2023-01-15T13:58:27;20.50;49.70
24744;DHT22;12844;52.110;5.548;2023-01-15T14:09:02;20.60;50.00
24744;DHT22;12844;52.110;5.548;2023-01-15T14:17:28;20.60;49.60
24744;DHT22;12844;52.110;5.548;2023-01-15T14:23:22;20.70;49.40
24744;DHT22;12844;52.110;5.548;2023-01-15T14:28:54;20.70;49.50
24744;DHT22;12844;52.110;5.548;2023-01-15T14:36:55;20.80;49.10
24744;DHT22;12844;52.110;5.548;2023-01-15T14:39:38;20.80;49.00
24744;DHT22;12844;52.110;5.548;2023-01-15T14:47:52;20.80;48.90
24744;DHT22;12844;52.110;5.548;2023-01-15T16:02:45;21.20;49.30
24744;DHT22;12844;52.110;5.548;2023-01-15T16:05:26;21.20;49.30
24744;DHT22;12844;52.110;5.548;2023-01-15T16:07:54;21.20;49.30
24744;DHT22;12844;52.110;5.548;2023-01-15T16:12:51;21.20;49.20
24744;DHT22;12844;52.110;5.548;2023-01-15T16:15:38;21.20;49.30
24744;DHT22;12844;52.110;5.548;2023-01-15T16:18:05;21.20;49.20
24744;DHT22;12844;52.110;5.548;2023-01-15T16:20:39;21.20;49.20
24744;DHT22;12844;52.110;5.548;2023-01-15T16:23:28;21.20;49.30
24744;DHT22;12844;52.110;5.548;2023-01-15T16:26:17;21.40;48.80
24744;DHT22;12844;52.110;5.548;2023-01-15T16:29:24;21.50;48.50
24744;DHT22;12844;52.110;5.548;2023-01-15T17:03:20;21.10;49.30
24744;DHT22;12844;52.110;5.548;2023-01-15T17:30:28;20.80;49.20
24744;DHT22;12844;52.110;5.548;2023-01-15T17:33:09;20.80;48.50
24744;DHT22;12844;52.110;5.548;2023-01-15T17:35:46;20.70;49.30
24744;DHT22;12844;52.110;5.548;2023-01-15T17:38:15;20.70;49.80
24744;DHT22;12844;52.110;5.548;2023-01-15T17:40:44;20.70;49.70
24744;DHT22;12844;52.110;5.548;2023-01-15T17:43:18;20.80;49.50
24744;DHT22;12844;52.110;5.548;2023-01-15T17:45:45;21.00;49.30
24744;DHT22;12844;52.110;5.548;2023-01-15T17:48:11;21.10;49.20
24744;DHT22;12844;52.110;5.548;2023-01-15T17:50:37;21.00;49.20
24744;DHT22;12844;52.110;5.548;2023-01-15T17:53:08;21.10;49.30
24744;DHT22;12844;52.110;5.548;2023-01-15T17:55:34;21.10;49.30
24744;DHT22;12844;52.110;5.548;2023-01-15T17:58:19;21.10;49.30
24744;DHT22;12844;52.110;5.548;2023-01-15T18:01:10;21.10;49.30
24744;DHT22;12844;52.110;5.548;2023-01-15T18:03:57;21.10;49.20
24744;DHT22;12844;52.110;5.548;2023-01-15T18:06:46;21.10;49.20
24744;DHT22;12844;52.110;5.548;2023-01-15T18:09:13;21.10;49.10
24744;DHT22;12844;52.110;5.548;2023-01-15T18:11:38;21.10;49.10
24744;DHT22;12844;52.110;5.548;2023-01-15T18:14:04;21.10;49.00
24744;DHT22;12844;52.110;5.548;2023-01-15T18:16:30;21.20;48.90
24744;DHT22;12844;52.110;5.548;2023-01-15T18:18:55;21.20;48.70
24744;DHT22;12844;52.110;5.548;2023-01-15T18:21:21;21.20;48.60
24744;DHT22;12844;52.110;5.548;2023-01-15T18:23:47;21.20;48.50
24744;DHT22;12844;52.110;5.548;2023-01-15T18:26:12;21.20;48.30
24744;DHT22;12844;52.110;5.548;2023-01-15T18:28:38;21.20;48.20
24744;DHT22;12844;52.110;5.548;2023-01-15T18:31:04;21.20;48.20
24744;DHT22;12844;52.110;5.548;2023-01-15T18:33:33;21.10;48.10
24744;DHT22;12844;52.110;5.548;2023-01-15T18:36:06;21.10;48.00
24744;DHT22;12844;52.110;5.548;2023-01-15T18:38:47;21.00;48.00
24744;DHT22;12844;52.110;5.548;2023-01-15T18:41:16;21.00;48.50
24744;DHT22;12844;52.110;5.548;2023-01-15T18:44:10;20.90;48.30
24744;DHT22;12844;52.110;5.548;2023-01-15T18:47:03;20.80;48.30
24744;DHT22;12844;52.110;5.548;2023-01-15T18:49:30;20.80;48.40
24744;DHT22;12844;52.110;5.548;2023-01-15T18:51:56;20.90;48.40
24744;DHT22;12844;52.110;5.548;2023-01-15T18:54:44;21.00;48.30
24744;DHT22;12844;52.110;5.548;2023-01-15T18:57:10;21.10;48.30
24744;DHT22;12844;52.110;5.548;2023-01-15T18:59:38;21.20;48.30
24744;DHT22;12844;52.110;5.548;2023-01-15T19:02:05;21.30;48.20
24744;DHT22;12844;52.110;5.548;2023-01-15T19:04:32;21.30;48.30
24744;DHT22;12844;52.110;5.548;2023-01-15T19:06:59;21.40;47.90
24744;DHT22;12844;52.110;5.548;2023-01-15T19:09:35;21.50;48.50
24744;DHT22;12844;52.110;5.548;2023-01-15T19:12:03;21.50;47.70
24744;DHT22;12844;52.110;5.548;2023-01-15T19:14:29;21.50;47.80
24744;DHT22;12844;52.110;5.548;2023-01-15T19:17:20;21.50;47.90
24744;DHT22;12844;52.110;5.548;2023-01-15T19:20:26;21.50;47.90
24744;DHT22;12844;52.110;5.548;2023-01-15T19:22:59;21.50;47.80
24744;DHT22;12844;52.110;5.548;2023-01-15T19:25:46;21.50;47.80
24744;DHT22;12844;52.110;5.548;2023-01-15T19:28:19;21.40;47.60
24744;DHT22;12844;52.110;5.548;2023-01-15T19:30:56;21.30;47.90
24744;DHT22;12844;52.110;5.548;2023-01-15T19:33:40;21.20;48.00
24744;DHT22;12844;52.110;5.548;2023-01-15T19:36:06;21.00;48.40
24744;DHT22;12844;52.110;5.548;2023-01-15T19:38:31;21.10;48.20
24744;DHT22;12844;52.110;5.548;2023-01-15T19:41:01;21.20;48.20
24744;DHT22;12844;52.110;5.548;2023-01-15T19:43:46;21.20;48.30
24744;DHT22;12844;52.110;5.548;2023-01-15T19:46:30;21.20;48.50
24744;DHT22;12844;52.110;5.548;2023-01-15T19:49:17;21.30;48.50
24744;DHT22;12844;52.110;5.548;2023-01-15T19:52:03;21.30;48.70
24744;DHT22;12844;52.110;5.548;2023-01-15T19:54:47;21.30;48.50
24744;DHT22;12844;52.110;5.548;2023-01-15T19:57:22;21.40;48.30
24744;DHT22;12844;52.110;5.548;2023-01-15T19:59:48;21.40;48.10
24744;DHT22;12844;52.110;5.548;2023-01-15T20:02:14;21.50;47.80
24744;DHT22;12844;52.110;5.548;2023-01-15T20:04:40;21.60;47.80
24744;DHT22;12844;52.110;5.548;2023-01-15T20:07:17;21.60;47.80
24744;DHT22;12844;52.110;5.548;2023-01-15T20:09:44;21.60;48.10
24744;DHT22;12844;52.110;5.548;2023-01-15T20:12:12;21.60;47.50
24744;DHT22;12844;52.110;5.548;2023-01-15T20:15:00;21.40;47.50
24744;DHT22;12844;52.110;5.548;2023-01-15T20:17:27;21.40;47.90
24744;DHT22;12844;52.110;5.548;2023-01-15T20:19:53;21.30;48.20
24744;DHT22;12844;52.110;5.548;2023-01-15T20:22:19;21.40;48.50
24744;DHT22;12844;52.110;5.548;2023-01-15T20:24:45;21.40;49.00
24744;DHT22;12844;52.110;5.548;2023-01-15T20:27:11;21.40;51.00
24744;DHT22;12844;52.110;5.548;2023-01-15T20:29:37;21.40;50.70
24744;DHT22;12844;52.110;5.548;2023-01-15T20:32:09;21.40;50.30
24744;DHT22;12844;52.110;5.548;2023-01-15T20:34:34;21.40;50.10
24744;DHT22;12844;52.110;5.548;2023-01-15T20:37:03;21.50;49.80
24744;DHT22;12844;52.110;5.548;2023-01-15T20:39:29;21.60;49.80
24744;DHT22;12844;52.110;5.548;2023-01-15T20:41:56;21.50;49.70
24744;DHT22;12844;52.110;5.548;2023-01-15T20:44:40;21.70;49.20
24744;DHT22;12844;52.110;5.548;2023-01-15T20:47:22;21.60;49.50
24744;DHT22;12844;52.110;5.548;2023-01-15T20:50:08;21.60;49.70
24744;DHT22;12844;52.110;5.548;2023-01-15T20:52:36;21.60;49.60
24744;DHT22;12844;52.110;5.548;2023-01-15T20:55:08;21.70;49.30
24744;DHT22;12844;52.110;5.548;2023-01-15T20:57:39;21.70;49.00
24744;DHT22;12844;52.110;5.548;2023-01-15T21:00:12;21.70;49.20
24744;DHT22;12844;52.110;5.548;2023-01-15T21:02:38;21.80;48.90
24744;DHT22;12844;52.110;5.548;2023-01-15T21:05:04;21.80;49.00
24744;DHT22;12844;52.110;5.548;2023-01-15T21:07:31;21.90;48.60
24744;DHT22;12844;52.110;5.548;2023-01-15T21:09:56;21.70;49.10
24744;DHT22;12844;52.110;5.548;2023-01-15T21:12:22;21.70;49.30
24744;DHT22;12844;52.110;5.548;2023-01-15T21:14:49;21.70;49.40
24744;DHT22;12844;52.110;5.548;2023-01-15T21:17:15;21.70;49.20
24744;DHT22;12844;52.110;5.548;2023-01-15T21:19:41;21.70;49.00